sensor_id;sensor_type;location;lat;lon;timestamp;P1;durP1;ratioP1;P2;durP2;ratioP2
29202;SDS011;16245;51.170;4.884;2023-04-06T00:01:47;26.27;;;17.38;;
29202;SDS011;16245;51.170;4.884;2023-04-06T00:04:12;32.78;;;19.13;;
29202;SDS011;16245;51.170;4.884;2023-04-06T00:06:38;30.63;;;18.02;;
29202;SDS011;16245;51.170;4.884;2023-04-06T00:09:04;27.75;;;18.05;;
29202;SDS011;16245;51.170;4.884;2023-04-06T00:11:29;29.05;;;17.13;;
29202;SDS011;16245;51.170;4.884;2023-04-06T00:13:55;32.72;;;20.45;;
29202;SDS011;16245;51.170;4.884;2023-04-06T00:16:21;33.10;;;20.35;;
29202;SDS011;16245;51.170;4.884;2023-04-06T00:18:47;27.73;;;18.17;;
29202;SDS011;16245;51.170;4.884;2023-04-06T00:21:12;30.52;;;19.02;;
29202;SDS011;16245;51.170;4.884;2023-04-06T00:23:39;26.13;;;18.35;;
29202;SDS011;16245;51.170;4.884;2023-04-06T00:26:08;27.02;;;18.85;;
29202;SDS011;16245;51.170;4.884;2023-04-06T00:28:34;28.27;;;18.52;;
29202;SDS011;16245;51.170;4.884;2023-04-06T00:30:59;24.63;;;16.88;;
29202;SDS011;16245;51.170;4.884;2023-04-06T00:33:25;26.23;;;16.33;;
29202;SDS011;16245;51.170;4.884;2023-04-06T00:35:51;26.58;;;16.38;;
29202;SDS011;16245;51.170;4.884;2023-04-06T00:38:16;26.55;;;15.73;;
29202;SDS011;16245;51.170;4.884;2023-04-06T00:40:42;24.77;;;16.15;;
29202;SDS011;16245;51.170;4.884;2023-04-06T00:43:11;24.60;;;17.15;;
29202;SDS011;16245;51.170;4.884;2023-04-06T00:45:38;24.20;;;16.77;;
29202;SDS011;16245;51.170;4.884;2023-04-06T00:48:04;25.35;;;16.95;;
29202;SDS011;16245;51.170;4.884;2023-04-06T00:50:31;27.67;;;17.45;;
29202;SDS011;16245;51.170;4.884;2023-04-06T00:52:57;29.25;;;17.65;;
29202;SDS011;16245;51.170;4.884;2023-04-06T00:55:23;26.58;;;17.30;;
29202;SDS011;16245;51.170;4.884;2023-04-06T00:57:49;26.80;;;17.05;;
29202;SDS011;16245;51.170;4.884;2023-04-06T01:00:15;25.30;;;16.35;;
29202;SDS011;16245;51.170;4.884;2023-04-06T01:02:41;27.33;;;16.65;;
29202;SDS011;16245;51.170;4.884;2023-04-06T01:05:07;25.42;;;17.27;;
29202;SDS011;16245;51.170;4.884;2023-04-06T01:07:33;25.67;;;16.98;;
29202;SDS011;16245;51.170;4.884;2023-04-06T01:09:59;28.75;;;17.33;;
29202;SDS011;16245;51.170;4.884;2023-04-06T01:12:25;25.00;;;17.15;;
29202;SDS011;16245;51.170;4.884;2023-04-06T01:14:51;26.27;;;16.38;;
29202;SDS011;16245;51.170;4.884;2023-04-06T01:17:16;27.85;;;16.52;;
29202;SDS011;16245;51.170;4.884;2023-04-06T01:19:42;25.52;;;16.77;;
29202;SDS011;16245;51.170;4.884;2023-04-06T01:22:13;28.50;;;16.15;;
29202;SDS011;16245;51.170;4.884;2023-04-06T01:24:42;25.70;;;16.98;;
29202;SDS011;16245;51.170;4.884;2023-04-06T01:27:08;23.77;;;16.02;;
29202;SDS011;16245;51.170;4.884;2023-04-06T01:29:34;24.42;;;16.77;;
29202;SDS011;16245;51.170;4.884;2023-04-06T01:32:00;23.83;;;15.93;;
29202;SDS011;16245;51.170;4.884;2023-04-06T01:34:25;25.17;;;15.95;;
29202;SDS011;16245;51.170;4.884;2023-04-06T01:36:51;26.23;;;16.23;;
29202;SDS011;16245;51.170;4.884;2023-04-06T01:39:17;24.25;;;16.55;;
29202;SDS011;16245;51.170;4.884;2023-04-06T01:41:43;23.45;;;15.35;;
29202;SDS011;16245;51.170;4.884;2023-04-06T01:44:09;28.77;;;18.00;;
29202;SDS011;16245;51.170;4.884;2023-04-06T01:46:35;27.88;;;16.17;;
29202;SDS011;16245;51.170;4.884;2023-04-06T01:49:01;24.95;;;15.82;;
29202;SDS011;16245;51.170;4.884;2023-04-06T01:51:26;27.27;;;16.92;;
29202;SDS011;16245;51.170;4.884;2023-04-06T01:53:52;22.42;;;16.05;;
29202;SDS011;16245;51.170;4.884;2023-04-06T01:56:18;28.33;;;17.60;;
29202;SDS011;16245;51.170;4.884;2023-04-06T01:58:43;29.55;;;16.75;;
29202;SDS011;16245;51.170;4.884;2023-04-06T02:01:09;26.00;;;16.00;;
29202;SDS011;16245;51.170;4.884;2023-04-06T02:03:35;22.40;;;15.13;;
29202;SDS011;16245;51.170;4.884;2023-04-06T02:06:01;29.63;;;16.98;;
29202;SDS011;16245;51.170;4.884;2023-04-06T02:08:26;25.38;;;15.43;;
29202;SDS011;16245;51.170;4.884;2023-04-06T02:10:52;24.73;;;15.50;;
29202;SDS011;16245;51.170;4.884;2023-04-06T02:13:18;25.80;;;16.10;;
29202;SDS011;16245;51.170;4.884;2023-04-06T02:15:43;26.48;;;15.70;;
29202;SDS011;16245;51.170;4.884;2023-04-06T02:18:09;24.38;;;14.70;;
29202;SDS011;16245;51.170;4.884;2023-04-06T02:20:35;19.98;;;14.45;;
29202;SDS011;16245;51.170;4.884;2023-04-06T02:23:00;24.65;;;14.43;;
29202;SDS011;16245;51.170;4.884;2023-04-06T02:25:26;27.23;;;15.75;;
29202;SDS011;16245;51.170;4.884;2023-04-06T02:27:52;23.38;;;14.23;;
29202;SDS011;16245;51.170;4.884;2023-04-06T02:30:17;25.20;;;14.90;;
29202;SDS011;16245;51.170;4.884;2023-04-06T02:32:43;24.23;;;15.73;;
29202;SDS011;16245;51.170;4.884;2023-04-06T02:35:09;25.83;;;15.98;;
29202;SDS011;16245;51.170;4.884;2023-04-06T02:37:34;22.52;;;14.95;;
29202;SDS011;16245;51.170;4.884;2023-04-06T02:40:00;28.38;;;16.17;;
29202;SDS011;16245;51.170;4.884;2023-04-06T02:42:26;27.33;;;16.77;;
29202;SDS011;16245;51.170;4.884;2023-04-06T02:44:51;27.48;;;16.50;;
29202;SDS011;16245;51.170;4.884;2023-04-06T02:47:17;22.63;;;14.93;;
29202;SDS011;16245;51.170;4.884;2023-04-06T02:49:43;24.45;;;14.98;;
29202;SDS011;16245;51.170;4.884;2023-04-06T02:52:08;25.83;;;15.20;;
29202;SDS011;16245;51.170;4.884;2023-04-06T02:54:34;23.77;;;15.95;;
29202;SDS011;16245;51.170;4.884;2023-04-06T02:57:00;26.33;;;15.48;;
29202;SDS011;16245;51.170;4.884;2023-04-06T02:59:25;24.13;;;15.88;;
29202;SDS011;16245;51.170;4.884;2023-04-06T03:01:51;21.98;;;14.60;;
29202;SDS011;16245;51.170;4.884;2023-04-06T03:04:17;21.88;;;13.88;;
29202;SDS011;16245;51.170;4.884;2023-04-06T03:06:42;27.17;;;16.13;;
29202;SDS011;16245;51.170;4.884;2023-04-06T03:09:08;24.65;;;15.30;;
29202;SDS011;16245;51.170;4.884;2023-04-06T03:11:34;24.05;;;15.35;;
29202;SDS011;16245;51.170;4.884;2023-04-06T03:13:59;23.67;;;16.30;;
29202;SDS011;16245;51.170;4.884;2023-04-06T03:16:25;22.52;;;14.35;;
29202;SDS011;16245;51.170;4.884;2023-04-06T03:18:51;26.15;;;16.00;;
29202;SDS011;16245;51.170;4.884;2023-04-06T03:21:16;24.63;;;15.90;;
29202;SDS011;16245;51.170;4.884;2023-04-06T03:23:42;25.38;;;16.27;;
29202;SDS011;16245;51.170;4.884;2023-04-06T03:26:08;21.35;;;14.45;;
29202;SDS011;16245;51.170;4.884;2023-04-06T03:28:35;23.08;;;14.43;;
29202;SDS011;16245;51.170;4.884;2023-04-06T03:31:01;29.55;;;16.55;;
29202;SDS011;16245;51.170;4.884;2023-04-06T03:33:26;23.70;;;14.90;;
29202;SDS011;16245;51.170;4.884;2023-04-06T03:35:52;26.45;;;15.45;;
29202;SDS011;16245;51.170;4.884;2023-04-06T03:38:18;30.65;;;17.77;;
29202;SDS011;16245;51.170;4.884;2023-04-06T03:40:44;22.13;;;14.73;;
29202;SDS011;16245;51.170;4.884;2023-04-06T03:43:10;28.30;;;16.58;;
29202;SDS011;16245;51.170;4.884;2023-04-06T03:45:36;25.55;;;15.35;;
29202;SDS011;16245;51.170;4.884;2023-04-06T03:48:02;25.73;;;14.38;;
29202;SDS011;16245;51.170;4.884;2023-04-06T03:50:28;22.38;;;14.85;;
29202;SDS011;16245;51.170;4.884;2023-04-06T03:52:53;22.58;;;15.02;;
29202;SDS011;16245;51.170;4.884;2023-04-06T03:55:19;25.67;;;16.55;;
29202;SDS011;16245;51.170;4.884;2023-04-06T03:57:45;25.10;;;16.13;;
29202;SDS011;16245;51.170;4.884;2023-04-06T04:00:11;26.17;;;15.18;;
29202;SDS011;16245;51.170;4.884;2023-04-06T04:02:37;28.52;;;16.00;;
29202;SDS011;16245;51.170;4.884;2023-04-06T04:05:03;26.52;;;15.65;;
29202;SDS011;16245;51.170;4.884;2023-04-06T04:07:28;22.08;;;14.80;;
29202;SDS011;16245;51.170;4.884;2023-04-06T04:09:54;25.35;;;15.00;;
29202;SDS011;16245;51.170;4.884;2023-04-06T04:12:20;26.75;;;15.73;;
29202;SDS011;16245;51.170;4.884;2023-04-06T04:14:46;24.33;;;14.93;;
29202;SDS011;16245;51.170;4.884;2023-04-06T04:17:11;26.25;;;13.73;;
29202;SDS011;16245;51.170;4.884;2023-04-06T04:19:37;24.27;;;16.45;;
29202;SDS011;16245;51.170;4.884;2023-04-06T04:22:02;24.35;;;15.48;;
29202;SDS011;16245;51.170;4.884;2023-04-06T04:24:30;23.08;;;14.50;;
29202;SDS011;16245;51.170;4.884;2023-04-06T04:26:55;25.40;;;15.63;;
29202;SDS011;16245;51.170;4.884;2023-04-06T04:29:21;24.08;;;15.48;;
29202;SDS011;16245;51.170;4.884;2023-04-06T04:31:47;24.45;;;14.15;;
29202;SDS011;16245;51.170;4.884;2023-04-06T04:34:14;23.30;;;15.80;;
29202;SDS011;16245;51.170;4.884;2023-04-06T04:36:40;24.92;;;14.52;;
29202;SDS011;16245;51.170;4.884;2023-04-06T04:39:07;22.50;;;14.68;;
29202;SDS011;16245;51.170;4.884;2023-04-06T04:41:33;25.17;;;15.88;;
29202;SDS011;16245;51.170;4.884;2023-04-06T04:43:58;23.38;;;15.82;;
29202;SDS011;16245;51.170;4.884;2023-04-06T04:46:24;22.40;;;14.68;;
29202;SDS011;16245;51.170;4.884;2023-04-06T04:48:50;24.95;;;16.35;;
29202;SDS011;16245;51.170;4.884;2023-04-06T04:51:15;26.73;;;15.30;;
29202;SDS011;16245;51.170;4.884;2023-04-06T04:53:41;25.75;;;15.65;;
29202;SDS011;16245;51.170;4.884;2023-04-06T04:56:07;25.33;;;15.85;;
29202;SDS011;16245;51.170;4.884;2023-04-06T04:58:32;25.98;;;15.63;;
29202;SDS011;16245;51.170;4.884;2023-04-06T05:00:58;22.58;;;14.98;;
29202;SDS011;16245;51.170;4.884;2023-04-06T05:03:24;25.70;;;16.35;;
29202;SDS011;16245;51.170;4.884;2023-04-06T05:05:51;27.70;;;14.82;;
29202;SDS011;16245;51.170;4.884;2023-04-06T05:08:17;28.35;;;14.82;;
29202;SDS011;16245;51.170;4.884;2023-04-06T05:10:43;23.35;;;14.10;;
29202;SDS011;16245;51.170;4.884;2023-04-06T05:13:13;25.20;;;14.68;;
29202;SDS011;16245;51.170;4.884;2023-04-06T05:15:39;23.02;;;14.20;;
29202;SDS011;16245;51.170;4.884;2023-04-06T05:18:08;23.02;;;14.35;;
29202;SDS011;16245;51.170;4.884;2023-04-06T05:20:34;16.02;;;12.90;;
29202;SDS011;16245;51.170;4.884;2023-04-06T05:23:00;21.23;;;14.30;;
29202;SDS011;16245;51.170;4.884;2023-04-06T05:25:26;19.67;;;12.93;;
29202;SDS011;16245;51.170;4.884;2023-04-06T05:27:52;19.95;;;13.40;;
29202;SDS011;16245;51.170;4.884;2023-04-06T05:30:18;19.73;;;13.82;;
29202;SDS011;16245;51.170;4.884;2023-04-06T05:32:44;20.50;;;13.85;;
29202;SDS011;16245;51.170;4.884;2023-04-06T05:35:10;20.52;;;13.93;;
29202;SDS011;16245;51.170;4.884;2023-04-06T05:37:36;21.80;;;14.25;;
29202;SDS011;16245;51.170;4.884;2023-04-06T05:40:02;25.52;;;15.13;;
29202;SDS011;16245;51.170;4.884;2023-04-06T05:42:35;22.88;;;12.85;;
29202;SDS011;16245;51.170;4.884;2023-04-06T05:45:05;24.17;;;15.02;;
29202;SDS011;16245;51.170;4.884;2023-04-06T05:47:31;23.25;;;14.27;;
29202;SDS011;16245;51.170;4.884;2023-04-06T05:49:57;24.45;;;14.35;;
29202;SDS011;16245;51.170;4.884;2023-04-06T05:52:23;20.00;;;14.55;;
29202;SDS011;16245;51.170;4.884;2023-04-06T05:54:49;22.45;;;15.32;;
29202;SDS011;16245;51.170;4.884;2023-04-06T05:57:15;22.67;;;14.77;;
29202;SDS011;16245;51.170;4.884;2023-04-06T05:59:41;21.58;;;14.57;;
29202;SDS011;16245;51.170;4.884;2023-04-06T06:02:07;22.27;;;14.57;;
29202;SDS011;16245;51.170;4.884;2023-04-06T06:04:33;23.70;;;13.63;;
29202;SDS011;16245;51.170;4.884;2023-04-06T06:06:58;21.15;;;14.50;;
29202;SDS011;16245;51.170;4.884;2023-04-06T06:09:25;23.33;;;15.20;;
29202;SDS011;16245;51.170;4.884;2023-04-06T06:11:51;22.50;;;13.85;;
29202;SDS011;16245;51.170;4.884;2023-04-06T06:14:16;24.65;;;14.98;;
29202;SDS011;16245;51.170;4.884;2023-04-06T06:16:43;27.70;;;17.52;;
29202;SDS011;16245;51.170;4.884;2023-04-06T06:19:09;26.33;;;14.73;;
29202;SDS011;16245;51.170;4.884;2023-04-06T06:21:35;29.10;;;15.73;;
29202;SDS011;16245;51.170;4.884;2023-04-06T06:24:01;33.42;;;16.10;;
29202;SDS011;16245;51.170;4.884;2023-04-06T06:26:27;28.25;;;16.95;;
29202;SDS011;16245;51.170;4.884;2023-04-06T06:28:52;25.50;;;16.23;;
29202;SDS011;16245;51.170;4.884;2023-04-06T06:31:18;25.40;;;15.90;;
29202;SDS011;16245;51.170;4.884;2023-04-06T06:33:47;24.08;;;15.45;;
29202;SDS011;16245;51.170;4.884;2023-04-06T06:36:19;23.30;;;14.38;;
29202;SDS011;16245;51.170;4.884;2023-04-06T06:38:45;24.88;;;15.93;;
29202;SDS011;16245;51.170;4.884;2023-04-06T06:41:10;24.88;;;16.20;;
29202;SDS011;16245;51.170;4.884;2023-04-06T06:43:36;21.45;;;14.48;;
29202;SDS011;16245;51.170;4.884;2023-04-06T06:46:03;28.95;;;16.55;;
29202;SDS011;16245;51.170;4.884;2023-04-06T06:48:29;25.13;;;15.38;;
29202;SDS011;16245;51.170;4.884;2023-04-06T06:50:54;27.27;;;15.15;;
29202;SDS011;16245;51.170;4.884;2023-04-06T06:53:20;21.95;;;15.35;;
29202;SDS011;16245;51.170;4.884;2023-04-06T06:55:46;27.25;;;16.33;;
29202;SDS011;16245;51.170;4.884;2023-04-06T06:58:13;23.75;;;16.20;;
29202;SDS011;16245;51.170;4.884;2023-04-06T07:00:40;28.88;;;16.45;;
29202;SDS011;16245;51.170;4.884;2023-04-06T07:03:05;26.63;;;16.02;;
29202;SDS011;16245;51.170;4.884;2023-04-06T07:05:31;25.33;;;15.50;;
29202;SDS011;16245;51.170;4.884;2023-04-06T07:07:57;30.90;;;17.60;;
29202;SDS011;16245;51.170;4.884;2023-04-06T07:10:23;29.27;;;18.23;;
29202;SDS011;16245;51.170;4.884;2023-04-06T07:12:48;22.70;;;16.38;;
29202;SDS011;16245;51.170;4.884;2023-04-06T07:15:14;34.33;;;17.35;;
29202;SDS011;16245;51.170;4.884;2023-04-06T07:17:40;28.63;;;15.82;;
29202;SDS011;16245;51.170;4.884;2023-04-06T07:20:06;26.75;;;16.73;;
29202;SDS011;16245;51.170;4.884;2023-04-06T07:22:32;25.48;;;16.00;;
29202;SDS011;16245;51.170;4.884;2023-04-06T07:24:58;28.75;;;16.63;;
29202;SDS011;16245;51.170;4.884;2023-04-06T07:27:24;26.50;;;16.35;;
29202;SDS011;16245;51.170;4.884;2023-04-06T07:29:49;27.02;;;17.13;;
29202;SDS011;16245;51.170;4.884;2023-04-06T07:32:15;28.98;;;17.88;;
29202;SDS011;16245;51.170;4.884;2023-04-06T07:34:41;32.83;;;20.23;;
29202;SDS011;16245;51.170;4.884;2023-04-06T07:37:06;24.55;;;16.30;;
29202;SDS011;16245;51.170;4.884;2023-04-06T07:39:32;24.73;;;16.65;;
29202;SDS011;16245;51.170;4.884;2023-04-06T07:41:58;25.52;;;16.90;;
29202;SDS011;16245;51.170;4.884;2023-04-06T07:44:24;28.83;;;17.63;;
29202;SDS011;16245;51.170;4.884;2023-04-06T07:46:50;28.63;;;18.73;;
29202;SDS011;16245;51.170;4.884;2023-04-06T07:49:16;26.60;;;18.65;;
29202;SDS011;16245;51.170;4.884;2023-04-06T07:51:41;29.48;;;18.90;;
29202;SDS011;16245;51.170;4.884;2023-04-06T07:54:07;28.35;;;18.23;;
29202;SDS011;16245;51.170;4.884;2023-04-06T07:56:33;27.25;;;17.30;;
29202;SDS011;16245;51.170;4.884;2023-04-06T07:58:58;27.13;;;17.95;;
29202;SDS011;16245;51.170;4.884;2023-04-06T08:01:24;24.38;;;16.38;;
29202;SDS011;16245;51.170;4.884;2023-04-06T08:03:51;23.50;;;15.63;;
29202;SDS011;16245;51.170;4.884;2023-04-06T08:06:16;28.10;;;16.77;;
29202;SDS011;16245;51.170;4.884;2023-04-06T08:08:42;29.08;;;18.00;;
29202;SDS011;16245;51.170;4.884;2023-04-06T08:11:08;28.70;;;16.42;;
29202;SDS011;16245;51.170;4.884;2023-04-06T08:13:34;27.58;;;17.52;;
29202;SDS011;16245;51.170;4.884;2023-04-06T08:16:00;23.95;;;15.95;;
29202;SDS011;16245;51.170;4.884;2023-04-06T08:18:26;28.70;;;17.42;;
29202;SDS011;16245;51.170;4.884;2023-04-06T08:20:54;29.00;;;17.35;;
29202;SDS011;16245;51.170;4.884;2023-04-06T08:23:20;24.73;;;15.90;;
29202;SDS011;16245;51.170;4.884;2023-04-06T08:25:45;21.70;;;14.45;;
29202;SDS011;16245;51.170;4.884;2023-04-06T08:28:11;21.52;;;14.57;;
29202;SDS011;16245;51.170;4.884;2023-04-06T08:30:39;23.50;;;14.88;;
29202;SDS011;16245;51.170;4.884;2023-04-06T08:33:05;22.00;;;14.52;;
29202;SDS011;16245;51.170;4.884;2023-04-06T08:35:31;26.63;;;14.75;;
29202;SDS011;16245;51.170;4.884;2023-04-06T08:37:57;18.80;;;14.60;;
29202;SDS011;16245;51.170;4.884;2023-04-06T08:40:23;24.83;;;15.10;;
29202;SDS011;16245;51.170;4.884;2023-04-06T08:42:54;25.80;;;16.00;;
29202;SDS011;16245;51.170;4.884;2023-04-06T08:45:21;19.88;;;14.02;;
29202;SDS011;16245;51.170;4.884;2023-04-06T08:47:51;27.05;;;15.65;;
29202;SDS011;16245;51.170;4.884;2023-04-06T08:50:19;28.95;;;16.77;;
29202;SDS011;16245;51.170;4.884;2023-04-06T08:52:48;27.15;;;16.40;;
29202;SDS011;16245;51.170;4.884;2023-04-06T08:55:15;29.55;;;15.90;;
29202;SDS011;16245;51.170;4.884;2023-04-06T08:57:41;28.63;;;15.32;;
29202;SDS011;16245;51.170;4.884;2023-04-06T09:00:09;24.58;;;14.75;;
29202;SDS011;16245;51.170;4.884;2023-04-06T09:02:38;25.15;;;15.45;;
29202;SDS011;16245;51.170;4.884;2023-04-06T09:05:07;21.33;;;14.38;;
29202;SDS011;16245;51.170;4.884;2023-04-06T09:07:33;20.85;;;14.35;;
29202;SDS011;16245;51.170;4.884;2023-04-06T09:10:00;21.55;;;13.35;;
29202;SDS011;16245;51.170;4.884;2023-04-06T09:12:26;23.15;;;14.05;;
29202;SDS011;16245;51.170;4.884;2023-04-06T09:14:53;18.65;;;12.57;;
29202;SDS011;16245;51.170;4.884;2023-04-06T09:17:24;19.70;;;13.57;;
29202;SDS011;16245;51.170;4.884;2023-04-06T09:19:54;19.67;;;12.65;;
29202;SDS011;16245;51.170;4.884;2023-04-06T09:22:21;16.98;;;12.43;;
29202;SDS011;16245;51.170;4.884;2023-04-06T09:27:17;19.83;;;12.75;;
29202;SDS011;16245;51.170;4.884;2023-04-06T09:30:02;18.48;;;12.82;;
29202;SDS011;16245;51.170;4.884;2023-04-06T09:32:31;19.60;;;12.35;;
29202;SDS011;16245;51.170;4.884;2023-04-06T09:35:09;16.98;;;12.07;;
29202;SDS011;16245;51.170;4.884;2023-04-06T09:37:35;17.38;;;11.32;;
29202;SDS011;16245;51.170;4.884;2023-04-06T09:40:04;20.05;;;12.30;;
29202;SDS011;16245;51.170;4.884;2023-04-06T09:42:32;18.25;;;12.18;;
29202;SDS011;16245;51.170;4.884;2023-04-06T09:44:58;21.55;;;11.55;;
29202;SDS011;16245;51.170;4.884;2023-04-06T09:47:23;15.45;;;10.70;;
29202;SDS011;16245;51.170;4.884;2023-04-06T09:49:53;17.05;;;11.07;;
29202;SDS011;16245;51.170;4.884;2023-04-06T09:52:24;14.98;;;11.15;;
29202;SDS011;16245;51.170;4.884;2023-04-06T09:54:52;17.20;;;11.50;;
29202;SDS011;16245;51.170;4.884;2023-04-06T09:57:26;18.80;;;12.35;;
29202;SDS011;16245;51.170;4.884;2023-04-06T10:07:51;16.83;;;11.20;;
29202;SDS011;16245;51.170;4.884;2023-04-06T10:10:19;18.20;;;12.38;;
29202;SDS011;16245;51.170;4.884;2023-04-06T10:12:46;17.55;;;12.07;;
29202;SDS011;16245;51.170;4.884;2023-04-06T10:15:13;15.88;;;11.20;;
29202;SDS011;16245;51.170;4.884;2023-04-06T10:17:38;16.80;;;11.68;;
29202;SDS011;16245;51.170;4.884;2023-04-06T10:20:11;18.83;;;12.15;;
29202;SDS011;16245;51.170;4.884;2023-04-06T10:23:26;14.40;;;10.73;;
29202;SDS011;16245;51.170;4.884;2023-04-06T10:25:51;16.67;;;11.13;;
29202;SDS011;16245;51.170;4.884;2023-04-06T10:28:22;19.38;;;12.15;;
29202;SDS011;16245;51.170;4.884;2023-04-06T10:30:49;17.02;;;11.77;;
29202;SDS011;16245;51.170;4.884;2023-04-06T10:33:21;17.90;;;12.63;;
29202;SDS011;16245;51.170;4.884;2023-04-06T10:35:47;18.23;;;13.18;;
29202;SDS011;16245;51.170;4.884;2023-04-06T10:38:12;18.85;;;13.70;;
29202;SDS011;16245;51.170;4.884;2023-04-06T10:40:48;22.10;;;12.98;;
29202;SDS011;16245;51.170;4.884;2023-04-06T10:43:18;22.50;;;14.20;;
29202;SDS011;16245;51.170;4.884;2023-04-06T10:45:45;20.33;;;13.48;;
29202;SDS011;16245;51.170;4.884;2023-04-06T10:48:20;16.48;;;12.93;;
29202;SDS011;16245;51.170;4.884;2023-04-06T10:50:47;21.10;;;13.52;;
29202;SDS011;16245;51.170;4.884;2023-04-06T10:53:24;21.63;;;13.65;;
29202;SDS011;16245;51.170;4.884;2023-04-06T10:55:56;18.83;;;14.13;;
29202;SDS011;16245;51.170;4.884;2023-04-06T10:58:26;19.08;;;14.30;;
29202;SDS011;16245;51.170;4.884;2023-04-06T11:00:52;18.42;;;13.32;;
29202;SDS011;16245;51.170;4.884;2023-04-06T11:03:22;18.77;;;13.25;;
29202;SDS011;16245;51.170;4.884;2023-04-06T11:05:52;20.92;;;13.85;;
29202;SDS011;16245;51.170;4.884;2023-04-06T11:08:31;19.88;;;13.98;;
29202;SDS011;16245;51.170;4.884;2023-04-06T11:11:08;17.90;;;13.57;;
29202;SDS011;16245;51.170;4.884;2023-04-06T11:13:48;21.40;;;12.95;;
29202;SDS011;16245;51.170;4.884;2023-04-06T11:16:25;17.23;;;13.38;;
29202;SDS011;16245;51.170;4.884;2023-04-06T11:18:53;20.70;;;14.45;;
29202;SDS011;16245;51.170;4.884;2023-04-06T11:26:31;15.77;;;12.75;;
29202;SDS011;16245;51.170;4.884;2023-04-06T11:29:01;18.25;;;12.15;;
29202;SDS011;16245;51.170;4.884;2023-04-06T11:31:27;23.60;;;13.52;;
29202;SDS011;16245;51.170;4.884;2023-04-06T11:33:56;16.48;;;12.77;;
29202;SDS011;16245;51.170;4.884;2023-04-06T11:36:22;19.05;;;13.50;;
29202;SDS011;16245;51.170;4.884;2023-04-06T11:38:49;17.70;;;13.32;;
29202;SDS011;16245;51.170;4.884;2023-04-06T11:41:15;17.73;;;12.60;;
29202;SDS011;16245;51.170;4.884;2023-04-06T11:43:47;16.20;;;12.13;;
29202;SDS011;16245;51.170;4.884;2023-04-06T11:46:16;18.55;;;12.73;;
29202;SDS011;16245;51.170;4.884;2023-04-06T11:48:44;16.83;;;12.02;;
29202;SDS011;16245;51.170;4.884;2023-04-06T11:51:11;16.42;;;12.52;;
29202;SDS011;16245;51.170;4.884;2023-04-06T11:53:55;16.48;;;13.02;;
29202;SDS011;16245;51.170;4.884;2023-04-06T11:56:30;16.63;;;12.98;;
29202;SDS011;16245;51.170;4.884;2023-04-06T11:58:56;14.55;;;11.63;;
29202;SDS011;16245;51.170;4.884;2023-04-06T12:01:24;18.85;;;13.10;;
29202;SDS011;16245;51.170;4.884;2023-04-06T12:03:56;20.52;;;12.48;;
29202;SDS011;16245;51.170;4.884;2023-04-06T12:06:22;19.17;;;12.55;;
29202;SDS011;16245;51.170;4.884;2023-04-06T12:08:48;17.23;;;12.30;;
29202;SDS011;16245;51.170;4.884;2023-04-06T12:11:14;19.20;;;13.43;;
29202;SDS011;16245;51.170;4.884;2023-04-06T12:13:43;17.17;;;12.98;;
29202;SDS011;16245;51.170;4.884;2023-04-06T12:16:09;18.17;;;13.27;;
29202;SDS011;16245;51.170;4.884;2023-04-06T12:18:38;15.02;;;12.15;;
29202;SDS011;16245;51.170;4.884;2023-04-06T12:21:03;16.52;;;11.25;;
29202;SDS011;16245;51.170;4.884;2023-04-06T12:23:30;18.92;;;12.50;;
29202;SDS011;16245;51.170;4.884;2023-04-06T12:25:56;20.05;;;12.43;;
29202;SDS011;16245;51.170;4.884;2023-04-06T12:31:01;17.13;;;12.30;;
29202;SDS011;16245;51.170;4.884;2023-04-06T12:33:27;15.75;;;11.15;;
29202;SDS011;16245;51.170;4.884;2023-04-06T12:35:53;14.77;;;10.70;;
29202;SDS011;16245;51.170;4.884;2023-04-06T12:38:19;16.02;;;11.85;;
29202;SDS011;16245;51.170;4.884;2023-04-06T12:40:53;17.73;;;12.70;;
29202;SDS011;16245;51.170;4.884;2023-04-06T12:43:32;18.17;;;12.32;;
29202;SDS011;16245;51.170;4.884;2023-04-06T12:45:58;18.80;;;12.85;;
29202;SDS011;16245;51.170;4.884;2023-04-06T12:48:24;17.83;;;12.35;;
29202;SDS011;16245;51.170;4.884;2023-04-06T12:50:56;16.33;;;11.82;;
29202;SDS011;16245;51.170;4.884;2023-04-06T12:53:29;16.55;;;12.65;;
29202;SDS011;16245;51.170;4.884;2023-04-06T12:55:55;15.80;;;11.50;;
29202;SDS011;16245;51.170;4.884;2023-04-06T12:58:22;15.45;;;12.77;;
29202;SDS011;16245;51.170;4.884;2023-04-06T13:00:48;14.80;;;11.60;;
29202;SDS011;16245;51.170;4.884;2023-04-06T13:03:16;17.25;;;12.93;;
29202;SDS011;16245;51.170;4.884;2023-04-06T13:05:49;16.42;;;11.80;;
29202;SDS011;16245;51.170;4.884;2023-04-06T13:08:16;24.00;;;12.80;;
29202;SDS011;16245;51.170;4.884;2023-04-06T13:10:43;19.77;;;12.30;;
29202;SDS011;16245;51.170;4.884;2023-04-06T13:13:16;15.20;;;11.88;;
29202;SDS011;16245;51.170;4.884;2023-04-06T13:15:42;16.45;;;12.48;;
29202;SDS011;16245;51.170;4.884;2023-04-06T13:18:08;13.65;;;11.27;;
29202;SDS011;16245;51.170;4.884;2023-04-06T13:20:34;19.48;;;13.20;;
29202;SDS011;16245;51.170;4.884;2023-04-06T13:23:01;20.20;;;12.55;;
29202;SDS011;16245;51.170;4.884;2023-04-06T13:25:26;16.35;;;11.57;;
29202;SDS011;16245;51.170;4.884;2023-04-06T13:27:53;16.08;;;12.27;;
29202;SDS011;16245;51.170;4.884;2023-04-06T13:30:19;17.20;;;11.93;;
29202;SDS011;16245;51.170;4.884;2023-04-06T13:32:45;14.80;;;11.40;;
29202;SDS011;16245;51.170;4.884;2023-04-06T13:35:11;15.68;;;10.90;;
29202;SDS011;16245;51.170;4.884;2023-04-06T13:37:37;16.45;;;11.52;;
29202;SDS011;16245;51.170;4.884;2023-04-06T13:40:03;15.10;;;11.68;;
29202;SDS011;16245;51.170;4.884;2023-04-06T13:42:30;16.42;;;11.90;;
29202;SDS011;16245;51.170;4.884;2023-04-06T13:44:56;18.83;;;12.98;;
29202;SDS011;16245;51.170;4.884;2023-04-06T13:47:22;16.17;;;12.05;;
29202;SDS011;16245;51.170;4.884;2023-04-06T13:49:49;16.90;;;12.77;;
29202;SDS011;16245;51.170;4.884;2023-04-06T13:52:16;14.20;;;11.07;;
29202;SDS011;16245;51.170;4.884;2023-04-06T13:54:42;16.02;;;12.60;;
29202;SDS011;16245;51.170;4.884;2023-04-06T13:57:08;16.27;;;11.93;;
29202;SDS011;16245;51.170;4.884;2023-04-06T13:59:34;15.48;;;12.18;;
29202;SDS011;16245;51.170;4.884;2023-04-06T14:02:00;17.48;;;12.77;;
29202;SDS011;16245;51.170;4.884;2023-04-06T14:04:26;17.98;;;12.65;;
29202;SDS011;16245;51.170;4.884;2023-04-06T14:06:52;15.40;;;11.82;;
29202;SDS011;16245;51.170;4.884;2023-04-06T14:09:18;15.85;;;12.65;;
29202;SDS011;16245;51.170;4.884;2023-04-06T14:11:43;16.95;;;12.57;;
29202;SDS011;16245;51.170;4.884;2023-04-06T14:14:09;19.98;;;13.90;;
29202;SDS011;16245;51.170;4.884;2023-04-06T14:16:35;17.23;;;13.13;;
29202;SDS011;16245;51.170;4.884;2023-04-06T14:19:01;16.55;;;13.40;;
29202;SDS011;16245;51.170;4.884;2023-04-06T14:21:27;17.35;;;13.07;;
29202;SDS011;16245;51.170;4.884;2023-04-06T14:23:53;21.90;;;13.90;;
29202;SDS011;16245;51.170;4.884;2023-04-06T14:26:20;16.48;;;13.98;;
29202;SDS011;16245;51.170;4.884;2023-04-06T14:28:45;19.52;;;14.55;;
29202;SDS011;16245;51.170;4.884;2023-04-06T14:31:12;18.20;;;14.02;;
29202;SDS011;16245;51.170;4.884;2023-04-06T14:33:39;17.77;;;13.00;;
29202;SDS011;16245;51.170;4.884;2023-04-06T14:36:06;15.95;;;13.77;;
29202;SDS011;16245;51.170;4.884;2023-04-06T14:38:32;17.38;;;12.70;;